createdAt,value
2019-05-29T00:00:24.768Z,1.65
2019-05-29T00:02:52.060Z,2.05
2019-05-29T00:05:19.312Z,2.00
2019-05-29T00:07:46.548Z,1.67
2019-05-29T00:10:14.382Z,2.22
2019-05-29T00:12:41.729Z,2.10
2019-05-29T00:15:08.997Z,2.15
2019-05-29T00:17:36.230Z,2.33
2019-05-29T00:20:03.770Z,2.17
2019-05-29T00:22:31.055Z,2.02
2019-05-29T00:24:58.335Z,2.30
2019-05-29T00:27:25.572Z,2.20
2019-05-29T00:29:52.843Z,2.37
2019-05-29T00:32:20.080Z,2.50
2019-05-29T00:34:47.428Z,2.37
2019-05-29T00:37:14.688Z,2.62
2019-05-29T00:39:42.027Z,2.80
2019-05-29T00:42:09.300Z,2.55
2019-05-29T00:44:36.556Z,2.72
2019-05-29T00:47:03.817Z,2.62
2019-05-29T00:49:31.163Z,2.62
2019-05-29T00:51:58.428Z,2.58
2019-05-29T00:54:25.670Z,2.30
2019-05-29T00:56:52.925Z,2.60
2019-05-29T00:59:20.161Z,2.65
2019-05-29T01:01:47.425Z,2.37
2019-05-29T01:04:15.673Z,2.67
2019-05-29T01:06:43.029Z,2.60
2019-05-29T01:09:10.459Z,2.30
2019-05-29T01:11:37.722Z,2.45
2019-05-29T01:14:04.991Z,2.40
2019-05-29T01:16:32.305Z,2.77
2019-05-29T01:19:20.177Z,2.42
2019-05-29T01:21:47.669Z,2.62
2019-05-29T01:24:14.944Z,2.40
2019-05-29T01:26:42.262Z,2.33
2019-05-29T01:29:09.505Z,2.40
2019-05-29T01:31:36.764Z,2.50
2019-05-29T01:34:04.041Z,2.67
2019-05-29T01:36:31.344Z,2.50
2019-05-29T01:38:58.620Z,2.62
2019-05-29T01:41:25.885Z,2.70
2019-05-29T01:43:53.153Z,2.75
2019-05-29T01:46:21.516Z,2.37
2019-05-29T01:48:48.896Z,2.05
2019-05-29T01:51:16.137Z,2.60
2019-05-29T01:53:43.721Z,2.35
2019-05-29T01:56:11.218Z,2.27
2019-05-29T01:58:38.445Z,2.40
2019-05-29T02:01:05.725Z,2.60
2019-05-29T02:03:32.995Z,2.25
2019-05-29T02:06:00.251Z,2.30
2019-05-29T02:08:28.338Z,2.50
2019-05-29T02:10:55.689Z,2.10
2019-05-29T02:13:23.570Z,1.82
2019-05-29T02:15:50.885Z,2.30
2019-05-29T02:18:18.825Z,1.90
2019-05-29T02:20:46.109Z,2.22
2019-05-29T02:23:13.509Z,2.30
2019-05-29T02:25:40.749Z,2.35
2019-05-29T02:28:08.003Z,2.52
2019-05-29T02:30:35.254Z,2.50
2019-05-29T02:33:02.517Z,2.50
2019-05-29T02:35:29.839Z,2.30
2019-05-29T02:37:57.123Z,2.47
2019-05-29T02:40:26.364Z,2.42
2019-05-29T02:42:53.617Z,2.40
2019-05-29T02:45:21.673Z,2.25
2019-05-29T02:47:49.607Z,2.52
2019-05-29T02:50:16.880Z,2.22
2019-05-29T02:52:44.119Z,2.22
2019-05-29T02:55:11.379Z,2.62
2019-05-29T02:57:38.639Z,2.50
2019-05-29T03:00:07.164Z,2.20
2019-05-29T03:02:34.408Z,2.20
2019-05-29T03:05:01.817Z,2.02
2019-05-29T03:07:30.700Z,2.37
2019-05-29T03:09:58.417Z,2.50
2019-05-29T03:12:27.052Z,2.70
2019-05-29T03:14:54.408Z,3.42
2019-05-29T03:17:23.500Z,3.77
2019-05-29T03:19:50.903Z,4.20
2019-05-29T03:22:18.127Z,4.58
2019-05-29T03:24:45.406Z,4.40
2019-05-29T03:27:12.654Z,5.25
2019-05-29T03:29:39.888Z,5.75
2019-05-29T03:32:13.268Z,5.60
2019-05-29T03:34:44.118Z,5.22
2019-05-29T03:37:05.432Z,5.95
2019-05-29T03:39:34.468Z,5.22
2019-05-29T03:42:01.854Z,5.72
2019-05-29T03:44:30.590Z,4.80
2019-05-29T03:46:58.073Z,5.05
2019-05-29T03:49:26.810Z,5.80
2019-05-29T03:51:54.224Z,6.60
2019-05-29T03:54:21.478Z,6.05
2019-05-29T03:56:48.721Z,5.58
2019-05-29T03:59:16.006Z,5.03
2019-05-29T04:01:43.279Z,6.28
2019-05-29T04:04:10.542Z,6.75
2019-05-29T04:06:37.836Z,6.72
2019-05-29T04:09:05.624Z,6.87
2019-05-29T04:11:33.239Z,7.12
2019-05-29T04:14:00.544Z,7.15
2019-05-29T04:16:31.127Z,7.75
2019-05-29T04:18:57.597Z,7.40
2019-05-29T04:21:25.009Z,7.80
2019-05-29T04:23:54.670Z,7.37
2019-05-29T04:26:24.023Z,7.55
2019-05-29T04:28:51.573Z,7.53
2019-05-29T04:31:18.821Z,8.20
2019-05-29T04:33:46.154Z,8.73
2019-05-29T04:36:13.452Z,8.68
2019-05-29T04:38:40.717Z,7.83
2019-05-29T04:41:07.981Z,8.55
2019-05-29T04:43:36.053Z,8.88
2019-05-29T04:46:04.425Z,8.58
2019-05-29T04:48:33.500Z,8.98
2019-05-29T04:51:00.950Z,8.73
2019-05-29T04:53:29.442Z,8.45
2019-05-29T04:55:57.416Z,8.68
2019-05-29T04:58:24.705Z,9.43
2019-05-29T05:00:59.108Z,8.28
2019-05-29T05:03:21.221Z,9.43
2019-05-29T05:05:48.493Z,9.95
2019-05-29T05:08:15.756Z,9.48
2019-05-29T05:10:43.725Z,10.05
2019-05-29T05:13:10.985Z,9.38
2019-05-29T05:15:38.332Z,10.25
2019-05-29T05:18:06.217Z,9.43
2019-05-29T05:20:34.016Z,9.78
2019-05-29T05:23:01.334Z,10.75
2019-05-29T05:25:28.621Z,10.13
2019-05-29T05:27:55.875Z,10.25
2019-05-29T05:30:23.165Z,9.68
2019-05-29T05:32:50.425Z,10.85
2019-05-29T05:35:17.716Z,9.95
2019-05-29T05:37:44.949Z,9.68
2019-05-29T05:40:12.248Z,10.80
2019-05-29T05:42:39.599Z,10.00
2019-05-29T05:45:07.265Z,10.32
2019-05-29T05:47:49.986Z,10.32
2019-05-29T05:50:04.225Z,10.55
2019-05-29T05:52:31.445Z,10.25
2019-05-29T05:54:58.754Z,10.30
2019-05-29T05:57:25.993Z,10.60
2019-05-29T05:59:53.234Z,9.93
2019-05-29T06:02:20.496Z,10.63
2019-05-29T06:04:47.737Z,10.00
2019-05-29T06:07:15.004Z,9.98
2019-05-29T06:09:42.581Z,9.50
2019-05-29T06:12:09.938Z,9.80
2019-05-29T06:14:38.408Z,9.08
2019-05-29T06:17:05.882Z,9.68
2019-05-29T06:19:33.144Z,9.95
2019-05-29T06:22:00.469Z,9.85
2019-05-29T06:24:27.905Z,10.28
2019-05-29T06:26:55.248Z,10.20
2019-05-29T06:29:22.517Z,10.13
2019-05-29T06:31:49.769Z,10.68
2019-05-29T06:34:17.072Z,10.38
2019-05-29T06:36:47.891Z,9.95
2019-05-29T06:39:13.572Z,10.53
2019-05-29T06:41:42.043Z,9.65
2019-05-29T06:44:09.365Z,11.08
2019-05-29T06:46:38.221Z,10.65
2019-05-29T06:49:05.628Z,10.03
2019-05-29T06:51:32.862Z,10.38
2019-05-29T06:54:00.118Z,9.65
2019-05-29T06:56:27.364Z,10.13
2019-05-29T06:58:54.612Z,10.53
2019-05-29T07:01:21.901Z,10.50
2019-05-29T07:03:49.150Z,9.75
2019-05-29T07:06:16.512Z,10.15
2019-05-29T07:08:47.881Z,10.25
2019-05-29T07:11:12.938Z,10.05
2019-05-29T07:13:43.151Z,9.65
2019-05-29T07:16:09.385Z,10.68
2019-05-29T07:18:36.675Z,9.83
2019-05-29T07:21:04.704Z,10.15
2019-05-29T07:23:31.958Z,9.90
2019-05-29T07:25:59.278Z,9.43
2019-05-29T07:28:26.599Z,10.18
2019-05-29T07:31:02.087Z,9.00
2019-05-29T07:33:23.034Z,9.70
2019-05-29T07:35:50.484Z,9.20
2019-05-29T07:38:17.792Z,8.48
2019-05-29T07:40:47.558Z,8.40
2019-05-29T07:43:14.171Z,9.33
2019-05-29T07:45:42.200Z,8.80
2019-05-29T07:48:09.495Z,9.28
2019-05-29T07:50:37.957Z,8.08
2019-05-29T07:53:05.289Z,9.45
2019-05-29T07:55:32.534Z,9.23
2019-05-29T07:57:59.813Z,9.30
2019-05-29T08:00:35.312Z,8.48
2019-05-29T08:02:56.346Z,8.98
2019-05-29T08:05:23.597Z,9.18
2019-05-29T08:07:50.897Z,8.18
2019-05-29T08:10:18.189Z,8.78
2019-05-29T08:12:50.723Z,8.65
2019-05-29T08:15:14.703Z,8.48
2019-05-29T08:17:42.175Z,8.63
2019-05-29T08:20:09.527Z,8.40
2019-05-29T08:22:36.769Z,8.33
2019-05-29T08:25:04.717Z,8.40
2019-05-29T08:27:31.980Z,7.80
2019-05-29T08:29:59.257Z,7.37
2019-05-29T08:32:26.504Z,8.30
2019-05-29T08:34:53.857Z,9.15
2019-05-29T08:37:21.129Z,8.18
2019-05-29T08:39:49.472Z,7.65
2019-05-29T08:42:23.123Z,8.75
2019-05-29T08:44:47.441Z,8.40
2019-05-29T08:47:14.828Z,8.48
2019-05-29T08:49:42.109Z,8.33
2019-05-29T08:52:12.375Z,8.03
2019-05-29T08:54:38.515Z,7.50
2019-05-29T08:57:05.777Z,7.83
2019-05-29T08:59:33.041Z,7.47
2019-05-29T09:02:00.344Z,7.75
2019-05-29T09:04:27.909Z,7.53
2019-05-29T09:06:55.176Z,7.87
2019-05-29T09:09:22.433Z,7.45
2019-05-29T09:11:50.135Z,7.35
2019-05-29T09:14:17.864Z,6.17
2019-05-29T09:16:45.133Z,6.50
2019-05-29T09:19:12.382Z,6.92
2019-05-29T09:21:39.658Z,6.45
2019-05-29T09:24:06.913Z,6.22
2019-05-29T09:26:34.191Z,6.72
2019-05-29T09:29:01.475Z,6.10
2019-05-29T09:31:28.756Z,6.72
2019-05-29T09:33:56.000Z,6.17
2019-05-29T09:36:24.594Z,7.10
2019-05-29T09:38:52.031Z,6.67
2019-05-29T09:41:19.279Z,7.22
2019-05-29T09:43:58.401Z,6.90
2019-05-29T09:46:16.979Z,7.00
2019-05-29T09:48:49.843Z,6.58
2019-05-29T09:51:21.124Z,6.42
2019-05-29T09:53:43.260Z,7.25
2019-05-29T09:56:10.556Z,6.78
2019-05-29T09:58:37.831Z,6.55
2019-05-29T10:01:22.284Z,6.65
2019-05-29T10:03:34.244Z,7.12
2019-05-29T10:06:01.731Z,7.22
2019-05-29T10:08:29.055Z,5.95
2019-05-29T10:11:04.812Z,6.55
2019-05-29T10:13:25.601Z,6.87
2019-05-29T10:15:54.053Z,7.12
2019-05-29T10:18:32.155Z,6.70
2019-05-29T10:20:51.309Z,6.17
2019-05-29T10:23:20.090Z,5.90
2019-05-29T10:25:47.529Z,6.30
2019-05-29T10:28:14.777Z,6.17
2019-05-29T10:30:42.339Z,5.37
2019-05-29T10:33:10.089Z,6.00
2019-05-29T10:35:37.347Z,5.70
2019-05-29T10:38:04.598Z,5.78
2019-05-29T10:40:31.865Z,5.80
2019-05-29T10:42:59.129Z,5.42
2019-05-29T10:45:26.344Z,5.72
2019-05-29T10:47:54.107Z,4.85
2019-05-29T10:50:21.662Z,5.05
2019-05-29T10:52:49.933Z,5.15
2019-05-29T10:55:19.662Z,4.97
2019-05-29T10:57:46.905Z,4.83
2019-05-29T11:00:14.672Z,5.00
2019-05-29T11:02:41.922Z,4.30
2019-05-29T11:05:10.082Z,4.47
2019-05-29T11:07:37.354Z,4.20
2019-05-29T11:10:05.959Z,5.10
2019-05-29T11:12:33.201Z,5.12
2019-05-29T11:15:00.500Z,5.17
2019-05-29T11:17:27.810Z,5.12
2019-05-29T11:19:55.660Z,4.70
2019-05-29T11:22:26.598Z,4.53
2019-05-29T11:24:52.526Z,5.65
2019-05-29T11:27:19.859Z,5.37
2019-05-29T11:29:48.613Z,4.40
2019-05-29T11:32:16.148Z,5.45
2019-05-29T11:34:43.475Z,4.92
2019-05-29T11:37:10.752Z,4.95
2019-05-29T11:39:38.057Z,5.10
2019-05-29T11:42:05.302Z,5.05
2019-05-29T11:44:32.569Z,5.10
2019-05-29T11:46:59.818Z,5.10
2019-05-29T11:49:27.110Z,5.50
2019-05-29T11:52:16.998Z,5.00
2019-05-29T11:54:23.568Z,4.67
2019-05-29T11:56:53.209Z,4.60
2019-05-29T11:59:20.052Z,4.85
2019-05-29T12:01:50.534Z,4.70
2019-05-29T12:04:25.729Z,4.60
2019-05-29T12:06:45.634Z,4.35
2019-05-29T12:09:12.897Z,4.60
2019-05-29T12:11:40.160Z,4.33
2019-05-29T12:14:07.444Z,3.85
2019-05-29T12:16:34.796Z,4.72
2019-05-29T12:19:02.382Z,4.80
2019-05-29T12:21:29.685Z,4.60
2019-05-29T12:23:58.092Z,4.72
2019-05-29T12:26:25.649Z,4.90
2019-05-29T12:28:54.024Z,4.08
2019-05-29T12:31:22.102Z,4.35
2019-05-29T12:33:49.356Z,4.40
2019-05-29T12:36:16.728Z,4.60
2019-05-29T12:38:44.003Z,4.45
2019-05-29T12:41:11.259Z,4.40
2019-05-29T12:43:38.504Z,4.03
2019-05-29T12:46:05.926Z,4.00
2019-05-29T12:48:33.305Z,4.25
2019-05-29T12:51:02.235Z,3.80
2019-05-29T12:53:31.288Z,4.25
2019-05-29T12:56:00.330Z,3.87
2019-05-29T12:58:27.937Z,3.87
2019-05-29T13:00:56.397Z,3.80
2019-05-29T13:03:23.829Z,3.83
2019-05-29T13:05:51.328Z,3.83
2019-05-29T13:08:18.557Z,4.67
2019-05-29T13:10:45.814Z,3.92
2019-05-29T13:13:13.049Z,3.83
2019-05-29T13:15:40.333Z,3.90
2019-05-29T13:18:09.992Z,4.12
2019-05-29T13:20:36.855Z,3.70
2019-05-29T13:23:05.413Z,3.85
2019-05-29T13:25:33.668Z,3.90
2019-05-29T13:28:02.697Z,4.15
2019-05-29T13:30:30.408Z,3.77
2019-05-29T13:33:01.699Z,3.85
2019-05-29T13:35:27.012Z,3.67
2019-05-29T13:37:54.402Z,4.20
2019-05-29T13:40:22.233Z,3.55
2019-05-29T13:42:49.487Z,4.25
2019-05-29T13:45:18.716Z,3.52
2019-05-29T13:47:46.169Z,3.20
2019-05-29T13:50:13.430Z,3.10
2019-05-29T13:52:40.731Z,2.80
2019-05-29T13:55:10.018Z,2.47
2019-05-29T13:57:39.712Z,2.87
2019-05-29T14:00:30.385Z,1.92
2019-05-29T14:02:36.507Z,2.50
2019-05-29T14:05:06.797Z,2.52
2019-05-29T14:07:34.273Z,2.40
2019-05-29T14:10:03.443Z,2.40
2019-05-29T14:12:31.002Z,2.50
2019-05-29T14:14:58.380Z,2.05
2019-05-29T14:17:25.653Z,2.60
2019-05-29T14:19:52.901Z,2.40
2019-05-29T14:22:20.161Z,2.17
2019-05-29T14:24:47.492Z,2.25
2019-05-29T14:27:14.782Z,2.65
2019-05-29T14:29:42.055Z,2.22
2019-05-29T14:32:09.431Z,2.90
2019-05-29T14:34:36.849Z,2.50
2019-05-29T14:37:04.917Z,2.50
2019-05-29T14:39:33.276Z,2.92
2019-05-29T14:42:01.717Z,2.87
2019-05-29T14:44:29.402Z,3.00
2019-05-29T14:46:56.664Z,3.00
2019-05-29T14:49:26.817Z,2.80
2019-05-29T14:51:53.157Z,2.83
2019-05-29T14:54:20.424Z,2.20
2019-05-29T14:56:47.759Z,2.22
2019-05-29T14:59:15.089Z,2.90
2019-05-29T15:01:42.402Z,2.60
2019-05-29T15:04:09.692Z,2.72
2019-05-29T15:06:36.990Z,2.77
2019-05-29T15:09:05.657Z,2.98
2019-05-29T15:11:32.906Z,2.75
2019-05-29T15:14:00.179Z,2.85
2019-05-29T15:16:27.503Z,2.58
2019-05-29T15:18:54.857Z,2.58
2019-05-29T15:21:22.465Z,2.22
2019-05-29T15:23:49.780Z,2.85
2019-05-29T15:26:17.044Z,2.30
2019-05-29T15:28:44.314Z,2.50
2019-05-29T15:31:12.393Z,2.10
2019-05-29T15:33:39.753Z,2.58
2019-05-29T15:36:07.058Z,2.62
2019-05-29T15:38:34.416Z,2.80
2019-05-29T15:41:01.700Z,2.60
2019-05-29T15:43:28.994Z,2.75
2019-05-29T15:45:56.285Z,2.65
2019-05-29T15:48:23.649Z,2.72
2019-05-29T15:50:50.924Z,2.80
2019-05-29T15:53:18.093Z,2.50
2019-05-29T15:55:45.349Z,2.90
2019-05-29T15:58:13.440Z,2.65
2019-05-29T16:00:40.841Z,3.10
2019-05-29T16:03:09.432Z,2.85
2019-05-29T16:05:36.782Z,2.72
2019-05-29T16:08:05.501Z,2.17
2019-05-29T16:10:32.774Z,2.70
2019-05-29T16:13:00.069Z,2.22
2019-05-29T16:15:27.333Z,2.30
2019-05-29T16:17:54.804Z,2.15
2019-05-29T16:20:22.846Z,2.30
2019-05-29T16:22:50.379Z,2.30
2019-05-29T16:25:18.998Z,2.05
2019-05-29T16:27:46.496Z,2.40
2019-05-29T16:30:15.403Z,2.02
2019-05-29T16:32:42.857Z,1.80
2019-05-29T16:35:10.990Z,2.00
2019-05-29T16:37:38.446Z,2.10
2019-05-29T16:40:06.473Z,2.15
2019-05-29T16:42:33.756Z,1.60
2019-05-29T16:45:01.038Z,1.47
2019-05-29T16:47:28.318Z,1.22
2019-05-29T16:49:55.633Z,1.20
2019-05-29T16:52:23.015Z,1.45
2019-05-29T16:54:50.377Z,1.32
2019-05-29T16:57:19.123Z,1.15
2019-05-29T16:59:46.597Z,1.00
2019-05-29T17:02:13.864Z,1.02
2019-05-29T17:04:41.289Z,1.10
2019-05-29T17:07:08.564Z,1.10
2019-05-29T17:09:35.793Z,0.90
2019-05-29T17:12:03.218Z,1.22
2019-05-29T17:14:30.544Z,1.20
2019-05-29T17:16:57.789Z,1.07
2019-05-29T17:19:25.588Z,0.95
2019-05-29T17:21:52.995Z,0.82
2019-05-29T17:24:20.945Z,0.93
2019-05-29T17:26:48.351Z,1.00
2019-05-29T17:29:16.777Z,0.90
2019-05-29T17:31:44.250Z,1.00
2019-05-29T17:34:11.511Z,1.07
2019-05-29T17:36:38.769Z,1.07
2019-05-29T17:39:07.532Z,0.90
2019-05-29T17:41:34.817Z,1.00
2019-05-29T17:44:02.159Z,1.15
2019-05-29T17:46:29.576Z,0.80
2019-05-29T17:48:56.992Z,0.82
2019-05-29T17:51:24.275Z,1.10
2019-05-29T17:53:51.516Z,1.10
2019-05-29T17:56:30.505Z,0.90
2019-05-29T17:58:48.214Z,0.90
2019-05-29T18:01:16.097Z,1.20
2019-05-29T18:03:43.558Z,1.45
2019-05-29T18:06:10.805Z,1.85
2019-05-29T18:08:38.206Z,2.45
2019-05-29T18:11:05.478Z,1.98
2019-05-29T18:13:32.832Z,1.30
2019-05-29T18:16:00.199Z,1.15
2019-05-29T18:18:27.824Z,1.02
2019-05-29T18:20:55.209Z,1.00
2019-05-29T18:23:23.785Z,1.00
2019-05-29T18:25:51.497Z,1.25
2019-05-29T18:28:19.906Z,1.12
2019-05-29T18:30:47.454Z,1.10
2019-05-29T18:33:14.703Z,1.50
2019-05-29T18:35:42.402Z,1.50
2019-05-29T18:38:09.906Z,1.57
2019-05-29T18:40:37.164Z,1.90
2019-05-29T18:43:04.409Z,1.80
2019-05-29T18:45:31.682Z,1.40
2019-05-29T18:47:58.994Z,1.30
2019-05-29T18:50:27.477Z,1.17
2019-05-29T18:52:54.894Z,1.10
2019-05-29T18:55:22.782Z,1.02
2019-05-29T18:57:50.290Z,1.20
2019-05-29T19:00:17.957Z,1.10
2019-05-29T19:02:45.314Z,1.30
2019-05-29T19:05:12.797Z,1.00
2019-05-29T19:07:40.064Z,1.25
2019-05-29T19:10:07.908Z,1.20
2019-05-29T19:12:35.231Z,1.37
2019-05-29T19:15:02.636Z,1.22
2019-05-29T19:17:30.134Z,1.45
2019-05-29T19:19:57.532Z,1.80
2019-05-29T19:22:26.240Z,1.90
2019-05-29T19:24:53.624Z,1.92
2019-05-29T19:27:31.005Z,1.90
2019-05-29T19:29:50.138Z,2.12
2019-05-29T19:32:17.392Z,2.00
2019-05-29T19:34:44.748Z,2.12
2019-05-29T19:37:12.056Z,2.37
2019-05-29T19:39:39.331Z,2.37
2019-05-29T19:42:07.634Z,1.98
2019-05-29T19:44:34.896Z,2.15
2019-05-29T19:47:03.983Z,2.52
2019-05-29T19:49:31.249Z,2.10
2019-05-29T19:51:58.665Z,1.80
2019-05-29T19:54:27.337Z,2.20
2019-05-29T19:56:54.708Z,2.30
2019-05-29T19:59:22.144Z,2.20
2019-05-29T20:01:49.405Z,2.67
2019-05-29T20:04:17.492Z,2.60
2019-05-29T20:06:44.799Z,2.20
2019-05-29T20:09:12.098Z,2.27
2019-05-29T20:11:39.416Z,2.55
2019-05-29T20:14:07.598Z,2.20
2019-05-29T20:16:36.231Z,2.42
2019-05-29T20:19:03.626Z,2.55
2019-05-29T20:21:31.000Z,2.87
2019-05-29T20:23:58.405Z,2.87
2019-05-29T20:26:25.738Z,3.60
2019-05-29T20:28:52.996Z,3.92
2019-05-29T20:31:20.261Z,4.10
2019-05-29T20:33:47.588Z,4.47
2019-05-29T20:36:14.868Z,4.62
2019-05-29T20:38:42.167Z,2.75
2019-05-29T20:41:09.479Z,3.10
2019-05-29T20:43:37.598Z,2.30
2019-05-29T20:46:04.992Z,2.00
2019-05-29T20:48:32.551Z,2.12
2019-05-29T20:50:59.920Z,2.10
2019-05-29T20:53:27.166Z,1.98
2019-05-29T20:55:54.437Z,2.05
2019-05-29T20:58:24.869Z,1.90
2019-05-29T21:00:50.941Z,1.90
2019-05-29T21:03:18.245Z,2.20
2019-05-29T21:05:45.542Z,2.12
2019-05-29T21:08:12.794Z,2.00
2019-05-29T21:10:40.688Z,1.90
2019-05-29T21:13:09.257Z,2.10
2019-05-29T21:15:37.570Z,1.75
2019-05-29T21:18:05.093Z,1.57
2019-05-29T21:20:32.354Z,1.60
2019-05-29T21:22:59.593Z,2.12
2019-05-29T21:25:26.940Z,1.62
2019-05-29T21:27:54.479Z,1.85
2019-05-29T21:30:23.188Z,1.77
2019-05-29T21:32:50.462Z,2.00
2019-05-29T21:35:17.736Z,1.70
2019-05-29T21:37:46.492Z,2.08
2019-05-29T21:40:14.041Z,2.10
2019-05-29T21:42:42.760Z,2.40
2019-05-29T21:45:10.772Z,2.40
2019-05-29T21:47:39.009Z,2.52
2019-05-29T21:50:06.460Z,2.00
2019-05-29T21:52:33.781Z,2.20
2019-05-29T21:55:01.038Z,2.20
2019-05-29T21:57:28.329Z,2.17
2019-05-29T21:59:55.576Z,2.00
2019-05-29T22:02:22.833Z,2.22
2019-05-29T22:04:50.118Z,2.27
2019-05-29T22:07:17.429Z,2.30
2019-05-29T22:09:44.669Z,2.70
2019-05-29T22:12:11.958Z,2.17
2019-05-29T22:14:39.265Z,2.40
2019-05-29T22:17:06.544Z,2.45
2019-05-29T22:19:33.802Z,2.20
2019-05-29T22:22:01.338Z,2.10
2019-05-29T22:24:28.654Z,2.60
2019-05-29T22:26:55.897Z,2.10
2019-05-29T22:29:23.189Z,2.45
2019-05-29T22:31:51.350Z,2.50
2019-05-29T22:34:18.709Z,3.10
2019-05-29T22:36:46.221Z,2.75
2019-05-29T22:39:13.515Z,2.90
2019-05-29T22:41:40.753Z,3.30
2019-05-29T22:44:08.030Z,3.05
2019-05-29T22:46:35.266Z,2.98
2019-05-29T22:49:02.574Z,3.10
2019-05-29T22:51:29.803Z,2.90
2019-05-29T22:53:57.905Z,3.62
2019-05-29T22:56:25.316Z,3.33
2019-05-29T22:58:53.918Z,3.00
2019-05-29T23:01:21.325Z,3.27
2019-05-29T23:03:48.612Z,3.25
2019-05-29T23:06:15.857Z,3.40
2019-05-29T23:08:43.119Z,3.40
2019-05-29T23:11:10.368Z,6.25
2019-05-29T23:13:37.623Z,5.90
2019-05-29T23:16:04.879Z,4.00
2019-05-29T23:18:32.141Z,4.72
2019-05-29T23:21:00.520Z,4.42
2019-05-29T23:23:27.953Z,3.58
2019-05-29T23:25:55.217Z,3.62
2019-05-29T23:28:23.236Z,3.62
2019-05-29T23:30:50.500Z,4.00
2019-05-29T23:33:17.734Z,3.37
2019-05-29T23:35:45.004Z,3.67
2019-05-29T23:38:12.250Z,3.90
2019-05-29T23:40:39.506Z,4.10
2019-05-29T23:43:06.745Z,3.58
2019-05-29T23:45:34.036Z,3.70
2019-05-29T23:48:01.795Z,4.00
2019-05-29T23:50:29.461Z,3.50
2019-05-29T23:52:57.926Z,3.22
2019-05-29T23:55:25.296Z,3.40
2019-05-29T23:57:53.623Z,2.85
